sensor_id;sensor_type;location;lat;lon;timestamp;P1;durP1;ratioP1;P2;durP2;ratioP2
20970;SDS011;10644;48.834;10.088;2023-07-31T00:01:21;9.07;;;2.63;;
20970;SDS011;10644;48.834;10.088;2023-07-31T00:03:47;12.20;;;3.63;;
20970;SDS011;10644;48.834;10.088;2023-07-31T00:06:12;7.80;;;2.70;;
20970;SDS011;10644;48.834;10.088;2023-07-31T00:08:40;6.43;;;2.57;;
20970;SDS011;10644;48.834;10.088;2023-07-31T00:11:05;10.27;;;3.63;;
20970;SDS011;10644;48.834;10.088;2023-07-31T00:13:30;6.03;;;2.20;;
20970;SDS011;10644;48.834;10.088;2023-07-31T00:15:56;8.03;;;2.80;;
20970;SDS011;10644;48.834;10.088;2023-07-31T00:18:21;8.80;;;2.40;;
20970;SDS011;10644;48.834;10.088;2023-07-31T00:20:47;7.67;;;2.70;;
20970;SDS011;10644;48.834;10.088;2023-07-31T00:23:12;13.47;;;3.50;;
20970;SDS011;10644;48.834;10.088;2023-07-31T00:25:37;3.13;;;2.20;;
20970;SDS011;10644;48.834;10.088;2023-07-31T00:28:03;12.53;;;3.30;;
20970;SDS011;10644;48.834;10.088;2023-07-31T00:30:28;11.90;;;3.80;;
20970;SDS011;10644;48.834;10.088;2023-07-31T00:32:54;2.80;;;1.90;;
20970;SDS011;10644;48.834;10.088;2023-07-31T00:35:19;12.37;;;3.10;;
20970;SDS011;10644;48.834;10.088;2023-07-31T00:37:44;12.30;;;3.03;;
20970;SDS011;10644;48.834;10.088;2023-07-31T00:40:10;7.70;;;2.27;;
20970;SDS011;10644;48.834;10.088;2023-07-31T00:42:35;6.13;;;2.67;;
20970;SDS011;10644;48.834;10.088;2023-07-31T00:45:01;13.70;;;4.00;;
20970;SDS011;10644;48.834;10.088;2023-07-31T00:47:26;8.60;;;2.73;;
20970;SDS011;10644;48.834;10.088;2023-07-31T00:49:52;9.40;;;2.73;;
20970;SDS011;10644;48.834;10.088;2023-07-31T00:52:18;11.40;;;3.40;;
20970;SDS011;10644;48.834;10.088;2023-07-31T00:54:44;9.60;;;3.00;;
20970;SDS011;10644;48.834;10.088;2023-07-31T00:57:09;7.23;;;2.70;;
20970;SDS011;10644;48.834;10.088;2023-07-31T00:59:37;8.10;;;3.07;;
20970;SDS011;10644;48.834;10.088;2023-07-31T01:02:05;9.03;;;3.23;;
20970;SDS011;10644;48.834;10.088;2023-07-31T01:04:31;12.93;;;3.60;;
20970;SDS011;10644;48.834;10.088;2023-07-31T01:07:01;5.43;;;2.70;;
20970;SDS011;10644;48.834;10.088;2023-07-31T01:09:58;8.13;;;3.00;;
20970;SDS011;10644;48.834;10.088;2023-07-31T01:12:36;16.23;;;4.20;;
20970;SDS011;10644;48.834;10.088;2023-07-31T01:15:04;11.33;;;4.17;;
20970;SDS011;10644;48.834;10.088;2023-07-31T01:17:30;15.03;;;3.80;;
20970;SDS011;10644;48.834;10.088;2023-07-31T01:19:56;6.57;;;2.87;;
20970;SDS011;10644;48.834;10.088;2023-07-31T01:28:00;11.80;;;3.63;;
20970;SDS011;10644;48.834;10.088;2023-07-31T01:30:32;11.97;;;3.97;;
20970;SDS011;10644;48.834;10.088;2023-07-31T01:33:00;9.30;;;2.90;;
20970;SDS011;10644;48.834;10.088;2023-07-31T01:35:31;11.03;;;2.73;;
20970;SDS011;10644;48.834;10.088;2023-07-31T01:37:57;9.80;;;2.97;;
20970;SDS011;10644;48.834;10.088;2023-07-31T01:40:25;7.43;;;3.00;;
20970;SDS011;10644;48.834;10.088;2023-07-31T01:42:51;3.50;;;2.63;;
20970;SDS011;10644;48.834;10.088;2023-07-31T01:45:18;8.63;;;2.87;;
20970;SDS011;10644;48.834;10.088;2023-07-31T01:47:44;9.10;;;3.57;;
20970;SDS011;10644;48.834;10.088;2023-07-31T01:50:10;4.87;;;2.77;;
20970;SDS011;10644;48.834;10.088;2023-07-31T01:52:38;7.57;;;2.80;;
20970;SDS011;10644;48.834;10.088;2023-07-31T01:55:03;6.63;;;3.07;;
20970;SDS011;10644;48.834;10.088;2023-07-31T01:57:29;13.30;;;3.93;;
20970;SDS011;10644;48.834;10.088;2023-07-31T01:59:54;9.40;;;2.70;;
20970;SDS011;10644;48.834;10.088;2023-07-31T02:02:22;5.80;;;2.97;;
20970;SDS011;10644;48.834;10.088;2023-07-31T02:04:50;14.30;;;3.40;;
20970;SDS011;10644;48.834;10.088;2023-07-31T02:07:16;5.50;;;2.80;;
20970;SDS011;10644;48.834;10.088;2023-07-31T02:09:41;10.87;;;3.63;;
20970;SDS011;10644;48.834;10.088;2023-07-31T02:12:09;12.60;;;3.30;;
20970;SDS011;10644;48.834;10.088;2023-07-31T02:14:34;8.20;;;3.43;;
20970;SDS011;10644;48.834;10.088;2023-07-31T02:17:00;12.83;;;2.93;;
20970;SDS011;10644;48.834;10.088;2023-07-31T02:19:25;9.63;;;3.67;;
20970;SDS011;10644;48.834;10.088;2023-07-31T02:21:51;6.00;;;2.50;;
20970;SDS011;10644;48.834;10.088;2023-07-31T02:24:16;10.13;;;3.30;;
20970;SDS011;10644;48.834;10.088;2023-07-31T02:26:42;10.70;;;3.63;;
20970;SDS011;10644;48.834;10.088;2023-07-31T02:29:09;9.67;;;3.20;;
20970;SDS011;10644;48.834;10.088;2023-07-31T02:31:35;6.70;;;2.77;;
20970;SDS011;10644;48.834;10.088;2023-07-31T02:34:00;5.70;;;3.10;;
20970;SDS011;10644;48.834;10.088;2023-07-31T02:36:25;7.30;;;2.73;;
20970;SDS011;10644;48.834;10.088;2023-07-31T02:38:51;13.53;;;3.90;;
20970;SDS011;10644;48.834;10.088;2023-07-31T02:41:16;6.20;;;2.87;;
20970;SDS011;10644;48.834;10.088;2023-07-31T02:43:41;7.70;;;3.40;;
20970;SDS011;10644;48.834;10.088;2023-07-31T02:46:07;6.30;;;3.70;;
20970;SDS011;10644;48.834;10.088;2023-07-31T02:48:32;11.37;;;3.70;;
20970;SDS011;10644;48.834;10.088;2023-07-31T02:51:00;8.50;;;2.87;;
20970;SDS011;10644;48.834;10.088;2023-07-31T02:53:25;24.93;;;3.97;;
20970;SDS011;10644;48.834;10.088;2023-07-31T02:55:51;8.00;;;3.27;;
20970;SDS011;10644;48.834;10.088;2023-07-31T02:58:16;12.03;;;3.43;;
20970;SDS011;10644;48.834;10.088;2023-07-31T03:00:44;12.23;;;3.30;;
20970;SDS011;10644;48.834;10.088;2023-07-31T03:03:10;5.90;;;2.60;;
20970;SDS011;10644;48.834;10.088;2023-07-31T03:05:35;7.00;;;3.33;;
20970;SDS011;10644;48.834;10.088;2023-07-31T03:08:03;15.27;;;3.67;;
20970;SDS011;10644;48.834;10.088;2023-07-31T03:10:29;15.93;;;3.40;;
20970;SDS011;10644;48.834;10.088;2023-07-31T03:12:54;14.43;;;4.27;;
20970;SDS011;10644;48.834;10.088;2023-07-31T03:15:20;6.30;;;3.10;;
20970;SDS011;10644;48.834;10.088;2023-07-31T03:17:45;6.43;;;3.13;;
20970;SDS011;10644;48.834;10.088;2023-07-31T03:20:11;13.53;;;4.10;;
20970;SDS011;10644;48.834;10.088;2023-07-31T03:22:36;16.13;;;3.63;;
20970;SDS011;10644;48.834;10.088;2023-07-31T03:25:02;5.60;;;3.20;;
20970;SDS011;10644;48.834;10.088;2023-07-31T03:27:28;21.00;;;5.43;;
20970;SDS011;10644;48.834;10.088;2023-07-31T03:29:53;4.40;;;2.73;;
20970;SDS011;10644;48.834;10.088;2023-07-31T03:32:21;8.03;;;3.20;;
20970;SDS011;10644;48.834;10.088;2023-07-31T03:34:46;11.03;;;3.77;;
20970;SDS011;10644;48.834;10.088;2023-07-31T03:37:12;5.97;;;3.57;;
20970;SDS011;10644;48.834;10.088;2023-07-31T03:39:39;7.47;;;3.20;;
20970;SDS011;10644;48.834;10.088;2023-07-31T03:42:05;8.30;;;3.30;;
20970;SDS011;10644;48.834;10.088;2023-07-31T03:44:31;6.50;;;3.37;;
20970;SDS011;10644;48.834;10.088;2023-07-31T03:46:56;5.97;;;3.20;;
20970;SDS011;10644;48.834;10.088;2023-07-31T03:49:21;7.20;;;3.37;;
20970;SDS011;10644;48.834;10.088;2023-07-31T03:51:47;16.10;;;4.40;;
20970;SDS011;10644;48.834;10.088;2023-07-31T03:54:12;7.57;;;3.30;;
20970;SDS011;10644;48.834;10.088;2023-07-31T03:56:38;22.37;;;5.50;;
20970;SDS011;10644;48.834;10.088;2023-07-31T03:59:03;20.33;;;5.07;;
20970;SDS011;10644;48.834;10.088;2023-07-31T04:01:29;30.37;;;6.67;;
20970;SDS011;10644;48.834;10.088;2023-07-31T04:03:56;24.17;;;7.50;;
20970;SDS011;10644;48.834;10.088;2023-07-31T04:06:22;22.00;;;7.87;;
20970;SDS011;10644;48.834;10.088;2023-07-31T04:08:49;29.53;;;10.57;;
20970;SDS011;10644;48.834;10.088;2023-07-31T04:11:15;39.43;;;11.63;;
20970;SDS011;10644;48.834;10.088;2023-07-31T04:13:40;31.53;;;9.73;;
20970;SDS011;10644;48.834;10.088;2023-07-31T04:16:09;30.57;;;10.10;;
20970;SDS011;10644;48.834;10.088;2023-07-31T04:18:34;22.77;;;6.90;;
20970;SDS011;10644;48.834;10.088;2023-07-31T04:20:59;23.03;;;6.20;;
20970;SDS011;10644;48.834;10.088;2023-07-31T04:23:26;11.70;;;5.40;;
20970;SDS011;10644;48.834;10.088;2023-07-31T04:25:51;14.60;;;6.07;;
20970;SDS011;10644;48.834;10.088;2023-07-31T04:28:17;11.40;;;4.37;;
20970;SDS011;10644;48.834;10.088;2023-07-31T04:30:42;17.73;;;5.97;;
20970;SDS011;10644;48.834;10.088;2023-07-31T04:33:07;21.13;;;4.83;;
20970;SDS011;10644;48.834;10.088;2023-07-31T04:35:35;22.83;;;6.30;;
20970;SDS011;10644;48.834;10.088;2023-07-31T04:38:01;38.20;;;5.23;;
20970;SDS011;10644;48.834;10.088;2023-07-31T04:40:26;18.43;;;5.60;;
20970;SDS011;10644;48.834;10.088;2023-07-31T04:42:52;13.13;;;4.50;;
20970;SDS011;10644;48.834;10.088;2023-07-31T04:45:17;19.80;;;5.60;;
20970;SDS011;10644;48.834;10.088;2023-07-31T04:47:43;19.77;;;5.70;;
20970;SDS011;10644;48.834;10.088;2023-07-31T04:50:08;23.13;;;7.10;;
20970;SDS011;10644;48.834;10.088;2023-07-31T04:52:34;17.70;;;5.23;;
20970;SDS011;10644;48.834;10.088;2023-07-31T04:54:59;19.30;;;6.53;;
20970;SDS011;10644;48.834;10.088;2023-07-31T04:57:25;18.70;;;5.23;;
20970;SDS011;10644;48.834;10.088;2023-07-31T04:59:50;14.53;;;5.13;;
20970;SDS011;10644;48.834;10.088;2023-07-31T05:02:15;24.17;;;6.10;;
20970;SDS011;10644;48.834;10.088;2023-07-31T05:04:41;13.10;;;5.00;;
20970;SDS011;10644;48.834;10.088;2023-07-31T05:07:06;21.13;;;6.63;;
20970;SDS011;10644;48.834;10.088;2023-07-31T05:09:31;20.03;;;5.57;;
20970;SDS011;10644;48.834;10.088;2023-07-31T05:11:57;20.10;;;4.83;;
20970;SDS011;10644;48.834;10.088;2023-07-31T05:14:22;24.90;;;6.83;;
20970;SDS011;10644;48.834;10.088;2023-07-31T05:16:47;16.30;;;5.03;;
20970;SDS011;10644;48.834;10.088;2023-07-31T05:19:15;22.80;;;5.80;;
20970;SDS011;10644;48.834;10.088;2023-07-31T05:21:41;34.70;;;20.70;;
20970;SDS011;10644;48.834;10.088;2023-07-31T05:24:06;27.13;;;6.50;;
20970;SDS011;10644;48.834;10.088;2023-07-31T05:26:31;23.73;;;7.40;;
20970;SDS011;10644;48.834;10.088;2023-07-31T05:28:59;30.57;;;8.80;;
20970;SDS011;10644;48.834;10.088;2023-07-31T05:31:27;27.53;;;7.30;;
20970;SDS011;10644;48.834;10.088;2023-07-31T05:33:53;32.07;;;8.50;;
20970;SDS011;10644;48.834;10.088;2023-07-31T05:36:18;18.00;;;6.03;;
20970;SDS011;10644;48.834;10.088;2023-07-31T05:38:46;30.17;;;8.30;;
20970;SDS011;10644;48.834;10.088;2023-07-31T05:41:11;21.60;;;7.40;;
20970;SDS011;10644;48.834;10.088;2023-07-31T05:43:37;21.60;;;6.80;;
20970;SDS011;10644;48.834;10.088;2023-07-31T05:46:03;28.23;;;13.17;;
20970;SDS011;10644;48.834;10.088;2023-07-31T05:48:30;24.57;;;7.13;;
20970;SDS011;10644;48.834;10.088;2023-07-31T05:50:56;18.13;;;7.43;;
20970;SDS011;10644;48.834;10.088;2023-07-31T05:53:21;30.17;;;8.67;;
20970;SDS011;10644;48.834;10.088;2023-07-31T05:55:47;71.87;;;34.37;;
20970;SDS011;10644;48.834;10.088;2023-07-31T05:58:12;48.40;;;25.30;;
20970;SDS011;10644;48.834;10.088;2023-07-31T06:00:40;21.30;;;9.00;;
20970;SDS011;10644;48.834;10.088;2023-07-31T06:03:06;32.90;;;9.13;;
20970;SDS011;10644;48.834;10.088;2023-07-31T06:05:33;21.77;;;8.03;;
20970;SDS011;10644;48.834;10.088;2023-07-31T06:08:01;27.80;;;10.00;;
20970;SDS011;10644;48.834;10.088;2023-07-31T06:10:27;24.13;;;8.10;;
20970;SDS011;10644;48.834;10.088;2023-07-31T06:12:53;26.33;;;7.13;;
20970;SDS011;10644;48.834;10.088;2023-07-31T06:15:19;22.10;;;6.63;;
20970;SDS011;10644;48.834;10.088;2023-07-31T06:17:45;17.80;;;5.60;;
20970;SDS011;10644;48.834;10.088;2023-07-31T06:20:10;22.57;;;7.17;;
20970;SDS011;10644;48.834;10.088;2023-07-31T06:22:36;18.80;;;6.03;;
20970;SDS011;10644;48.834;10.088;2023-07-31T06:25:01;18.77;;;6.97;;
20970;SDS011;10644;48.834;10.088;2023-07-31T06:27:26;26.13;;;8.73;;
20970;SDS011;10644;48.834;10.088;2023-07-31T06:29:52;17.73;;;6.53;;
20970;SDS011;10644;48.834;10.088;2023-07-31T06:32:17;27.23;;;8.33;;
20970;SDS011;10644;48.834;10.088;2023-07-31T06:34:43;25.40;;;8.60;;
20970;SDS011;10644;48.834;10.088;2023-07-31T06:37:11;19.43;;;8.00;;
20970;SDS011;10644;48.834;10.088;2023-07-31T06:39:36;48.27;;;12.50;;
20970;SDS011;10644;48.834;10.088;2023-07-31T06:45:36;30.40;;;8.50;;
20970;SDS011;10644;48.834;10.088;2023-07-31T06:48:05;45.87;;;10.90;;
20970;SDS011;10644;48.834;10.088;2023-07-31T06:50:31;19.77;;;6.73;;
20970;SDS011;10644;48.834;10.088;2023-07-31T06:53:06;31.17;;;7.50;;
20970;SDS011;10644;48.834;10.088;2023-07-31T06:55:34;26.27;;;7.97;;
20970;SDS011;10644;48.834;10.088;2023-07-31T06:58:02;60.13;;;15.60;;
20970;SDS011;10644;48.834;10.088;2023-07-31T07:00:28;34.87;;;9.10;;
20970;SDS011;10644;48.834;10.088;2023-07-31T07:03:02;30.77;;;8.47;;
20970;SDS011;10644;48.834;10.088;2023-07-31T07:05:50;25.67;;;6.97;;
20970;SDS011;10644;48.834;10.088;2023-07-31T07:08:31;14.47;;;4.80;;
20970;SDS011;10644;48.834;10.088;2023-07-31T07:13:55;95.03;;;18.63;;
20970;SDS011;10644;48.834;10.088;2023-07-31T07:16:28;70.70;;;25.90;;
20970;SDS011;10644;48.834;10.088;2023-07-31T07:19:12;39.20;;;17.57;;
20970;SDS011;10644;48.834;10.088;2023-07-31T07:22:06;59.63;;;15.93;;
20970;SDS011;10644;48.834;10.088;2023-07-31T07:24:57;33.30;;;10.83;;
20970;SDS011;10644;48.834;10.088;2023-07-31T07:30:09;35.13;;;11.70;;
20970;SDS011;10644;48.834;10.088;2023-07-31T07:32:47;16.70;;;4.37;;
20970;SDS011;10644;48.834;10.088;2023-07-31T07:35:22;19.93;;;5.20;;
20970;SDS011;10644;48.834;10.088;2023-07-31T07:37:56;16.10;;;5.17;;
20970;SDS011;10644;48.834;10.088;2023-07-31T07:40:44;39.77;;;9.80;;
20970;SDS011;10644;48.834;10.088;2023-07-31T07:43:33;41.57;;;8.47;;
20970;SDS011;10644;48.834;10.088;2023-07-31T07:46:06;43.23;;;13.23;;
20970;SDS011;10644;48.834;10.088;2023-07-31T07:48:34;29.40;;;8.63;;
20970;SDS011;10644;48.834;10.088;2023-07-31T07:51:05;21.33;;;5.50;;
20970;SDS011;10644;48.834;10.088;2023-07-31T07:53:35;44.80;;;10.23;;
20970;SDS011;10644;48.834;10.088;2023-07-31T07:56:03;34.97;;;7.27;;
20970;SDS011;10644;48.834;10.088;2023-07-31T07:58:31;24.87;;;6.03;;
20970;SDS011;10644;48.834;10.088;2023-07-31T08:01:20;40.27;;;8.13;;
20970;SDS011;10644;48.834;10.088;2023-07-31T08:04:05;26.57;;;5.53;;
20970;SDS011;10644;48.834;10.088;2023-07-31T08:06:36;15.20;;;4.83;;
20970;SDS011;10644;48.834;10.088;2023-07-31T08:09:01;48.07;;;10.23;;
20970;SDS011;10644;48.834;10.088;2023-07-31T08:14:48;19.40;;;5.07;;
20970;SDS011;10644;48.834;10.088;2023-07-31T08:20:58;20.23;;;4.43;;
20970;SDS011;10644;48.834;10.088;2023-07-31T08:23:52;21.47;;;4.80;;
20970;SDS011;10644;48.834;10.088;2023-07-31T08:26:41;13.43;;;4.47;;
20970;SDS011;10644;48.834;10.088;2023-07-31T08:29:53;36.80;;;7.23;;
20970;SDS011;10644;48.834;10.088;2023-07-31T08:32:30;18.73;;;4.17;;
20970;SDS011;10644;48.834;10.088;2023-07-31T08:34:59;17.43;;;4.47;;
20970;SDS011;10644;48.834;10.088;2023-07-31T08:37:24;21.30;;;4.57;;
20970;SDS011;10644;48.834;10.088;2023-07-31T08:39:54;17.57;;;4.53;;
20970;SDS011;10644;48.834;10.088;2023-07-31T08:42:27;23.17;;;5.43;;
20970;SDS011;10644;48.834;10.088;2023-07-31T08:44:52;22.50;;;5.00;;
20970;SDS011;10644;48.834;10.088;2023-07-31T08:47:20;20.27;;;5.23;;
20970;SDS011;10644;48.834;10.088;2023-07-31T08:49:49;12.23;;;3.83;;
20970;SDS011;10644;48.834;10.088;2023-07-31T08:52:16;9.57;;;3.50;;
20970;SDS011;10644;48.834;10.088;2023-07-31T08:58:02;51.53;;;11.67;;
20970;SDS011;10644;48.834;10.088;2023-07-31T09:01:12;49.20;;;10.33;;
20970;SDS011;10644;48.834;10.088;2023-07-31T09:18:07;23.93;;;5.33;;
20970;SDS011;10644;48.834;10.088;2023-07-31T10:26:27;49.17;;;12.70;;
20970;SDS011;10644;48.834;10.088;2023-07-31T10:29:14;28.97;;;7.43;;
20970;SDS011;10644;48.834;10.088;2023-07-31T10:31:47;25.63;;;6.57;;
20970;SDS011;10644;48.834;10.088;2023-07-31T10:40:54;25.50;;;6.60;;
20970;SDS011;10644;48.834;10.088;2023-07-31T10:44:05;10.70;;;3.80;;
20970;SDS011;10644;48.834;10.088;2023-07-31T10:46:32;17.20;;;4.90;;
20970;SDS011;10644;48.834;10.088;2023-07-31T10:49:13;20.07;;;5.83;;
20970;SDS011;10644;48.834;10.088;2023-07-31T10:56:05;27.33;;;8.00;;
20970;SDS011;10644;48.834;10.088;2023-07-31T11:02:00;11.43;;;4.13;;
20970;SDS011;10644;48.834;10.088;2023-07-31T11:08:41;43.57;;;10.57;;
20970;SDS011;10644;48.834;10.088;2023-07-31T11:14:30;22.90;;;5.30;;
20970;SDS011;10644;48.834;10.088;2023-07-31T13:32:18;15.03;;;4.63;;
20970;SDS011;10644;48.834;10.088;2023-07-31T13:35:47;48.53;;;11.43;;
20970;SDS011;10644;48.834;10.088;2023-07-31T14:44:19;62.60;;;17.53;;
20970;SDS011;10644;48.834;10.088;2023-07-31T14:46:50;59.30;;;18.47;;
20970;SDS011;10644;48.834;10.088;2023-07-31T14:49:17;68.97;;;20.03;;
20970;SDS011;10644;48.834;10.088;2023-07-31T14:51:46;53.80;;;16.33;;
20970;SDS011;10644;48.834;10.088;2023-07-31T14:54:13;16.70;;;5.67;;
20970;SDS011;10644;48.834;10.088;2023-07-31T14:56:42;13.90;;;4.37;;
20970;SDS011;10644;48.834;10.088;2023-07-31T14:59:12;56.07;;;16.47;;
20970;SDS011;10644;48.834;10.088;2023-07-31T15:01:44;58.93;;;17.93;;
20970;SDS011;10644;48.834;10.088;2023-07-31T15:04:12;46.83;;;13.57;;
20970;SDS011;10644;48.834;10.088;2023-07-31T15:06:39;17.83;;;6.10;;
20970;SDS011;10644;48.834;10.088;2023-07-31T15:09:06;11.60;;;4.63;;
20970;SDS011;10644;48.834;10.088;2023-07-31T15:11:32;15.87;;;6.40;;
20970;SDS011;10644;48.834;10.088;2023-07-31T15:14:00;67.90;;;45.37;;
20970;SDS011;10644;48.834;10.088;2023-07-31T15:16:25;14.50;;;4.77;;
20970;SDS011;10644;48.834;10.088;2023-07-31T15:18:50;17.00;;;5.47;;
20970;SDS011;10644;48.834;10.088;2023-07-31T15:21:16;19.23;;;5.90;;
20970;SDS011;10644;48.834;10.088;2023-07-31T15:23:41;20.13;;;6.47;;
20970;SDS011;10644;48.834;10.088;2023-07-31T15:26:06;15.97;;;5.17;;
20970;SDS011;10644;48.834;10.088;2023-07-31T15:28:32;16.23;;;5.37;;
20970;SDS011;10644;48.834;10.088;2023-07-31T15:30:59;16.30;;;4.60;;
20970;SDS011;10644;48.834;10.088;2023-07-31T15:33:27;11.70;;;3.50;;
20970;SDS011;10644;48.834;10.088;2023-07-31T15:35:52;26.80;;;7.93;;
20970;SDS011;10644;48.834;10.088;2023-07-31T15:38:20;12.70;;;4.87;;
20970;SDS011;10644;48.834;10.088;2023-07-31T15:40:46;13.30;;;4.50;;
20970;SDS011;10644;48.834;10.088;2023-07-31T15:43:11;10.70;;;4.30;;
20970;SDS011;10644;48.834;10.088;2023-07-31T15:45:36;11.73;;;4.53;;
20970;SDS011;10644;48.834;10.088;2023-07-31T15:48:02;14.80;;;4.10;;
20970;SDS011;10644;48.834;10.088;2023-07-31T15:50:29;12.00;;;4.73;;
20970;SDS011;10644;48.834;10.088;2023-07-31T15:52:55;17.17;;;5.10;;
20970;SDS011;10644;48.834;10.088;2023-07-31T15:55:20;13.83;;;5.10;;
20970;SDS011;10644;48.834;10.088;2023-07-31T15:57:46;14.80;;;4.63;;
20970;SDS011;10644;48.834;10.088;2023-07-31T16:00:12;11.90;;;4.80;;
20970;SDS011;10644;48.834;10.088;2023-07-31T16:02:37;14.50;;;4.80;;
20970;SDS011;10644;48.834;10.088;2023-07-31T16:05:05;12.53;;;5.13;;
20970;SDS011;10644;48.834;10.088;2023-07-31T16:07:30;12.40;;;4.97;;
20970;SDS011;10644;48.834;10.088;2023-07-31T16:09:56;12.10;;;5.53;;
20970;SDS011;10644;48.834;10.088;2023-07-31T16:12:24;11.60;;;4.60;;
20970;SDS011;10644;48.834;10.088;2023-07-31T16:14:49;20.00;;;5.93;;
20970;SDS011;10644;48.834;10.088;2023-07-31T16:17:14;11.47;;;4.30;;
20970;SDS011;10644;48.834;10.088;2023-07-31T16:19:40;18.43;;;5.20;;
20970;SDS011;10644;48.834;10.088;2023-07-31T16:22:05;19.00;;;6.13;;
20970;SDS011;10644;48.834;10.088;2023-07-31T16:24:31;16.00;;;5.47;;
20970;SDS011;10644;48.834;10.088;2023-07-31T16:26:57;11.80;;;4.23;;
20970;SDS011;10644;48.834;10.088;2023-07-31T16:29:22;9.73;;;4.17;;
20970;SDS011;10644;48.834;10.088;2023-07-31T16:31:47;13.10;;;5.03;;
20970;SDS011;10644;48.834;10.088;2023-07-31T16:34:13;11.33;;;3.97;;
20970;SDS011;10644;48.834;10.088;2023-07-31T16:36:38;13.87;;;4.80;;
20970;SDS011;10644;48.834;10.088;2023-07-31T16:39:03;14.30;;;4.63;;
20970;SDS011;10644;48.834;10.088;2023-07-31T16:41:29;10.13;;;4.20;;
20970;SDS011;10644;48.834;10.088;2023-07-31T16:43:54;13.47;;;4.40;;
20970;SDS011;10644;48.834;10.088;2023-07-31T16:46:20;16.33;;;5.23;;
20970;SDS011;10644;48.834;10.088;2023-07-31T16:48:45;15.47;;;5.60;;
20970;SDS011;10644;48.834;10.088;2023-07-31T16:51:11;11.53;;;4.30;;
20970;SDS011;10644;48.834;10.088;2023-07-31T16:53:36;21.33;;;5.63;;
20970;SDS011;10644;48.834;10.088;2023-07-31T16:56:05;16.80;;;5.20;;
20970;SDS011;10644;48.834;10.088;2023-07-31T16:58:32;17.27;;;6.30;;
20970;SDS011;10644;48.834;10.088;2023-07-31T17:00:58;17.90;;;5.70;;
20970;SDS011;10644;48.834;10.088;2023-07-31T17:03:25;20.43;;;6.23;;
20970;SDS011;10644;48.834;10.088;2023-07-31T17:05:51;18.33;;;5.43;;
20970;SDS011;10644;48.834;10.088;2023-07-31T17:08:17;13.83;;;4.80;;
20970;SDS011;10644;48.834;10.088;2023-07-31T17:10:43;11.63;;;4.27;;
20970;SDS011;10644;48.834;10.088;2023-07-31T17:13:08;12.40;;;4.77;;
20970;SDS011;10644;48.834;10.088;2023-07-31T17:15:33;13.73;;;4.77;;
20970;SDS011;10644;48.834;10.088;2023-07-31T17:17:59;14.73;;;5.33;;
20970;SDS011;10644;48.834;10.088;2023-07-31T17:20:24;14.00;;;4.77;;
20970;SDS011;10644;48.834;10.088;2023-07-31T17:22:50;17.13;;;5.00;;
20970;SDS011;10644;48.834;10.088;2023-07-31T17:25:18;19.53;;;5.37;;
20970;SDS011;10644;48.834;10.088;2023-07-31T17:27:44;11.63;;;4.20;;
20970;SDS011;10644;48.834;10.088;2023-07-31T17:30:09;20.33;;;6.23;;
20970;SDS011;10644;48.834;10.088;2023-07-31T17:32:37;23.40;;;6.47;;
20970;SDS011;10644;48.834;10.088;2023-07-31T17:35:03;15.30;;;4.13;;
20970;SDS011;10644;48.834;10.088;2023-07-31T17:37:28;16.03;;;5.43;;
20970;SDS011;10644;48.834;10.088;2023-07-31T17:39:54;19.83;;;6.30;;
20970;SDS011;10644;48.834;10.088;2023-07-31T17:42:19;15.50;;;5.00;;
20970;SDS011;10644;48.834;10.088;2023-07-31T17:44:44;15.93;;;5.60;;
20970;SDS011;10644;48.834;10.088;2023-07-31T17:47:10;16.23;;;5.00;;
20970;SDS011;10644;48.834;10.088;2023-07-31T17:49:36;11.60;;;4.60;;
20970;SDS011;10644;48.834;10.088;2023-07-31T17:52:04;11.43;;;5.03;;
20970;SDS011;10644;48.834;10.088;2023-07-31T17:54:33;15.27;;;5.37;;
20970;SDS011;10644;48.834;10.088;2023-07-31T17:56:58;21.97;;;6.50;;
20970;SDS011;10644;48.834;10.088;2023-07-31T17:59:23;16.33;;;4.60;;
20970;SDS011;10644;48.834;10.088;2023-07-31T18:01:49;16.73;;;5.33;;
20970;SDS011;10644;48.834;10.088;2023-07-31T18:04:16;12.57;;;4.37;;
20970;SDS011;10644;48.834;10.088;2023-07-31T18:06:42;8.90;;;3.77;;
20970;SDS011;10644;48.834;10.088;2023-07-31T18:09:08;14.03;;;5.33;;
20970;SDS011;10644;48.834;10.088;2023-07-31T18:11:34;23.23;;;7.03;;
20970;SDS011;10644;48.834;10.088;2023-07-31T18:14:00;14.20;;;4.60;;
20970;SDS011;10644;48.834;10.088;2023-07-31T18:16:25;12.33;;;4.47;;
20970;SDS011;10644;48.834;10.088;2023-07-31T18:18:53;11.90;;;4.30;;
20970;SDS011;10644;48.834;10.088;2023-07-31T18:21:18;14.43;;;4.60;;
20970;SDS011;10644;48.834;10.088;2023-07-31T18:23:43;14.63;;;5.30;;
20970;SDS011;10644;48.834;10.088;2023-07-31T18:26:09;10.87;;;4.47;;
20970;SDS011;10644;48.834;10.088;2023-07-31T18:28:34;16.43;;;5.73;;
20970;SDS011;10644;48.834;10.088;2023-07-31T18:31:02;13.70;;;5.27;;
20970;SDS011;10644;48.834;10.088;2023-07-31T18:33:28;10.23;;;5.13;;
20970;SDS011;10644;48.834;10.088;2023-07-31T18:35:54;8.53;;;3.40;;
20970;SDS011;10644;48.834;10.088;2023-07-31T18:38:19;13.87;;;5.43;;
20970;SDS011;10644;48.834;10.088;2023-07-31T18:40:44;7.10;;;3.60;;
20970;SDS011;10644;48.834;10.088;2023-07-31T18:43:12;9.47;;;3.73;;
20970;SDS011;10644;48.834;10.088;2023-07-31T18:45:38;8.03;;;3.87;;
20970;SDS011;10644;48.834;10.088;2023-07-31T18:48:03;9.30;;;3.63;;
20970;SDS011;10644;48.834;10.088;2023-07-31T18:50:29;5.23;;;3.50;;
20970;SDS011;10644;48.834;10.088;2023-07-31T18:52:56;9.37;;;4.30;;
20970;SDS011;10644;48.834;10.088;2023-07-31T18:55:22;13.00;;;4.87;;
20970;SDS011;10644;48.834;10.088;2023-07-31T18:57:47;6.73;;;3.37;;
20970;SDS011;10644;48.834;10.088;2023-07-31T19:00:14;9.73;;;4.30;;
20970;SDS011;10644;48.834;10.088;2023-07-31T19:02:42;15.27;;;5.37;;
20970;SDS011;10644;48.834;10.088;2023-07-31T19:05:07;8.00;;;4.30;;
20970;SDS011;10644;48.834;10.088;2023-07-31T19:07:33;9.90;;;5.43;;
20970;SDS011;10644;48.834;10.088;2023-07-31T19:10:00;9.97;;;4.60;;
20970;SDS011;10644;48.834;10.088;2023-07-31T19:12:27;7.40;;;4.10;;
20970;SDS011;10644;48.834;10.088;2023-07-31T19:14:52;7.30;;;3.90;;
20970;SDS011;10644;48.834;10.088;2023-07-31T19:17:17;9.90;;;4.30;;
20970;SDS011;10644;48.834;10.088;2023-07-31T19:19:43;10.90;;;4.20;;
20970;SDS011;10644;48.834;10.088;2023-07-31T19:22:08;7.07;;;4.33;;
20970;SDS011;10644;48.834;10.088;2023-07-31T19:24:34;13.80;;;4.10;;
20970;SDS011;10644;48.834;10.088;2023-07-31T19:27:00;10.20;;;5.03;;
20970;SDS011;10644;48.834;10.088;2023-07-31T19:29:27;9.33;;;3.70;;
20970;SDS011;10644;48.834;10.088;2023-07-31T19:31:53;8.73;;;4.50;;
20970;SDS011;10644;48.834;10.088;2023-07-31T19:34:21;8.67;;;4.17;;
20970;SDS011;10644;48.834;10.088;2023-07-31T19:36:50;12.80;;;4.70;;
20970;SDS011;10644;48.834;10.088;2023-07-31T19:39:17;10.20;;;4.20;;
20970;SDS011;10644;48.834;10.088;2023-07-31T19:41:42;9.30;;;3.80;;
20970;SDS011;10644;48.834;10.088;2023-07-31T19:44:07;4.40;;;3.47;;
20970;SDS011;10644;48.834;10.088;2023-07-31T19:46:33;5.97;;;3.40;;
20970;SDS011;10644;48.834;10.088;2023-07-31T19:49:00;6.67;;;4.10;;
20970;SDS011;10644;48.834;10.088;2023-07-31T19:51:25;6.60;;;3.70;;
20970;SDS011;10644;48.834;10.088;2023-07-31T19:53:50;9.20;;;4.73;;
20970;SDS011;10644;48.834;10.088;2023-07-31T19:56:16;7.33;;;4.10;;